createdAt,value
2022-09-23T00:00:33.652Z,1011.97
2022-09-23T00:01:33.639Z,1011.97
2022-09-23T00:02:33.615Z,1011.96
2022-09-23T00:03:33.548Z,1011.99
2022-09-23T00:04:36.320Z,1011.93
2022-09-23T00:05:33.521Z,1011.95
2022-09-23T00:06:33.520Z,1011.94
2022-09-23T00:07:33.502Z,1011.91
2022-09-23T00:08:33.493Z,1011.93
2022-09-23T00:09:33.477Z,1011.92
2022-09-23T00:10:33.585Z,1011.90
2022-09-23T00:11:33.480Z,1011.90
2022-09-23T00:12:33.468Z,1011.91
2022-09-23T00:13:33.430Z,1011.86
2022-09-23T00:14:33.456Z,1011.89
2022-09-23T00:15:33.420Z,1011.89
2022-09-23T00:16:33.468Z,1011.92
2022-09-23T00:17:33.390Z,1011.90
2022-09-23T00:18:33.478Z,1011.88
2022-09-23T00:19:33.371Z,1011.86
2022-09-23T00:20:33.391Z,1011.86
2022-09-23T00:21:33.340Z,1011.89
2022-09-23T00:22:33.369Z,1011.93
2022-09-23T00:23:33.330Z,1011.88
2022-09-23T00:24:33.322Z,1011.91
2022-09-23T00:25:33.300Z,1011.89
2022-09-23T00:26:33.329Z,1011.81
2022-09-23T00:27:33.278Z,1011.84
2022-09-23T00:28:33.269Z,1011.81
2022-09-23T00:29:33.277Z,1011.79
2022-09-23T00:30:33.271Z,1011.79
2022-09-23T00:31:33.307Z,1011.76
2022-09-23T00:32:33.270Z,1011.82
2022-09-23T00:33:33.219Z,1011.83
2022-09-23T00:34:33.229Z,1011.80
2022-09-23T00:35:33.189Z,1011.81
2022-09-23T00:36:33.199Z,1011.76
2022-09-23T00:37:33.298Z,1011.80
2022-09-23T00:38:33.189Z,1011.78
2022-09-23T00:39:33.151Z,1011.80
2022-09-23T00:40:33.215Z,1011.78
2022-09-23T00:41:33.126Z,1011.82
2022-09-23T00:42:33.124Z,1011.79
2022-09-23T00:43:33.157Z,1011.75
2022-09-23T00:44:33.095Z,1011.78
2022-09-23T00:45:33.079Z,1011.73
2022-09-23T00:46:33.129Z,1011.74
2022-09-23T00:47:33.060Z,1011.74
2022-09-23T00:48:33.069Z,1011.73
2022-09-23T00:49:33.079Z,1011.74
2022-09-23T00:50:33.028Z,1011.73
2022-09-23T00:51:33.039Z,1011.72
2022-09-23T00:52:33.036Z,1011.73
2022-09-23T00:53:32.997Z,1011.69
2022-09-23T00:54:32.995Z,1011.71
2022-09-23T00:55:32.999Z,1011.68
2022-09-23T00:56:33.008Z,1011.64
2022-09-23T00:57:32.978Z,1011.68
2022-09-23T00:58:32.948Z,1011.64
2022-09-23T00:59:32.948Z,1011.64
2022-09-23T01:00:32.976Z,1011.64
2022-09-23T01:01:32.983Z,1011.64
2022-09-23T01:02:32.979Z,1011.61
2022-09-23T01:03:32.907Z,1011.67
2022-09-23T01:04:32.878Z,1011.63
2022-09-23T01:05:32.858Z,1011.67
2022-09-23T01:06:32.867Z,1011.63
2022-09-23T01:07:32.929Z,1011.62
2022-09-23T01:08:32.877Z,1011.61
2022-09-23T01:09:32.817Z,1011.65
2022-09-23T01:10:32.807Z,1011.59
2022-09-23T01:11:32.806Z,1011.61
2022-09-23T01:12:32.815Z,1011.57
2022-09-23T01:13:32.809Z,1011.54
2022-09-23T01:14:32.817Z,1011.54
2022-09-23T01:15:32.786Z,1011.56
2022-09-23T01:16:32.867Z,1011.58
2022-09-23T01:17:32.746Z,1011.52
2022-09-23T01:18:32.747Z,1011.52
2022-09-23T01:19:32.748Z,1011.52
2022-09-23T01:20:32.736Z,1011.55
2022-09-23T01:21:32.696Z,1011.51
2022-09-23T01:22:32.746Z,1011.52
2022-09-23T01:23:32.678Z,1011.52
2022-09-23T01:24:32.665Z,1011.51
2022-09-23T01:25:32.711Z,1011.49
2022-09-23T01:26:32.692Z,1011.46
2022-09-23T01:27:32.623Z,1011.46
2022-09-23T01:28:32.657Z,1011.46
2022-09-23T01:29:32.606Z,1011.43
2022-09-23T01:30:32.678Z,1011.42
2022-09-23T01:31:32.620Z,1011.38
2022-09-23T01:32:32.635Z,1011.44
2022-09-23T01:33:32.567Z,1011.41
2022-09-23T01:34:32.556Z,1011.40
2022-09-23T01:35:32.545Z,1011.38
2022-09-23T01:36:32.555Z,1011.39
2022-09-23T01:37:32.536Z,1011.46
2022-09-23T01:38:32.625Z,1011.42
2022-09-23T01:39:32.545Z,1011.41
2022-09-23T01:40:32.610Z,1011.41
2022-09-23T01:41:32.506Z,1011.32
2022-09-23T01:42:32.487Z,1011.42
2022-09-23T01:43:32.455Z,1011.38
2022-09-23T01:44:32.451Z,1011.38
2022-09-23T01:45:32.463Z,1011.37
2022-09-23T01:46:32.454Z,1011.37
2022-09-23T01:47:32.406Z,1011.33
2022-09-23T01:48:32.461Z,1011.34
2022-09-23T01:49:32.387Z,1011.35
2022-09-23T01:50:32.421Z,1011.35
2022-09-23T01:51:32.415Z,1011.31
2022-09-23T01:52:32.396Z,1011.35
2022-09-23T01:53:32.384Z,1011.33
2022-09-23T01:54:32.352Z,1011.33
2022-09-23T01:55:32.345Z,1011.36
2022-09-23T01:56:32.344Z,1011.35
2022-09-23T01:57:32.294Z,1011.29
2022-09-23T01:58:32.333Z,1011.37
2022-09-23T01:59:32.299Z,1011.32
2022-09-23T02:00:32.304Z,1011.30
2022-09-23T02:01:32.317Z,1011.29
2022-09-23T02:02:32.273Z,1011.26
2022-09-23T02:03:32.263Z,1011.28
2022-09-23T02:04:32.261Z,1011.26
2022-09-23T02:05:32.215Z,1011.23
2022-09-23T02:06:32.253Z,1011.29
2022-09-23T02:07:33.915Z,1011.29
2022-09-23T02:08:32.215Z,1011.31
2022-09-23T02:09:32.166Z,1011.29
2022-09-23T02:10:32.173Z,1011.30
2022-09-23T02:11:32.143Z,1011.25
2022-09-23T02:12:32.145Z,1011.26
2022-09-23T02:13:32.183Z,1011.22
2022-09-23T02:14:32.126Z,1011.22
2022-09-23T02:15:32.102Z,1011.21
2022-09-23T02:16:32.219Z,1011.20
2022-09-23T02:17:32.094Z,1011.17
2022-09-23T02:18:32.102Z,1011.17
2022-09-23T02:19:32.066Z,1011.19
2022-09-23T02:20:32.059Z,1011.18
2022-09-23T02:21:32.042Z,1011.17
2022-09-23T02:22:32.037Z,1011.17
2022-09-23T02:23:40.412Z,1011.17
2022-09-23T02:24:32.053Z,1011.17
2022-09-23T02:25:32.012Z,1011.16
2022-09-23T02:26:32.012Z,1011.10
2022-09-23T02:27:31.973Z,1011.14
2022-09-23T02:28:31.971Z,1011.10
2022-09-23T02:29:31.992Z,1011.15
2022-09-23T02:30:31.954Z,1011.11
2022-09-23T02:31:32.001Z,1011.06
2022-09-23T02:32:31.974Z,1011.04
2022-09-23T02:33:31.932Z,1011.02
2022-09-23T02:34:31.982Z,1011.01
2022-09-23T02:35:31.953Z,1010.99
2022-09-23T02:36:31.952Z,1011.04
2022-09-23T02:37:31.934Z,1010.99
2022-09-23T02:38:31.862Z,1011.00
2022-09-23T02:39:31.891Z,1010.98
2022-09-23T02:40:31.950Z,1010.98
2022-09-23T02:41:31.892Z,1010.97
2022-09-23T02:42:31.853Z,1010.97
2022-09-23T02:43:31.801Z,1010.97
2022-09-23T02:44:31.892Z,1010.95
2022-09-23T02:45:31.956Z,1010.94
2022-09-23T02:46:31.810Z,1010.91
2022-09-23T02:47:31.792Z,1010.90
2022-09-23T02:48:31.853Z,1010.89
2022-09-23T02:49:31.822Z,1010.89
2022-09-23T02:50:31.742Z,1010.91
2022-09-23T02:51:31.773Z,1010.87
2022-09-23T02:52:31.701Z,1010.93
2022-09-23T02:53:31.692Z,1010.95
2022-09-23T02:54:31.688Z,1010.90
2022-09-23T02:55:31.692Z,1010.86
2022-09-23T02:56:31.732Z,1010.86
2022-09-23T02:57:31.722Z,1010.86
2022-09-23T02:58:31.642Z,1010.82
2022-09-23T02:59:31.690Z,1010.87
2022-09-23T03:00:31.677Z,1010.81
2022-09-23T03:01:31.900Z,1010.79
2022-09-23T03:02:31.862Z,1010.78
2022-09-23T03:03:31.628Z,1010.79
2022-09-23T03:04:31.587Z,1010.76
2022-09-23T03:05:31.609Z,1010.79
2022-09-23T03:06:31.610Z,1010.77
2022-09-23T03:07:31.588Z,1010.76
2022-09-23T03:08:31.568Z,1010.81
2022-09-23T03:09:31.527Z,1010.74
2022-09-23T03:10:31.609Z,1010.71
2022-09-23T03:11:31.609Z,1010.72
2022-09-23T03:12:31.521Z,1010.69
2022-09-23T03:13:31.533Z,1010.72
2022-09-23T03:14:31.480Z,1010.68
2022-09-23T03:15:31.509Z,1010.73
2022-09-23T03:16:31.561Z,1010.73
2022-09-23T03:17:31.430Z,1010.72
2022-09-23T03:18:31.476Z,1010.67
2022-09-23T03:19:31.487Z,1010.69
2022-09-23T03:20:31.413Z,1010.70
2022-09-23T03:21:31.440Z,1010.69
2022-09-23T03:22:31.400Z,1010.72
2022-09-23T03:23:31.436Z,1010.74
2022-09-23T03:24:31.440Z,1010.73
2022-09-23T03:25:31.387Z,1010.68
2022-09-23T03:26:31.366Z,1010.69
2022-09-23T03:27:31.351Z,1010.70
2022-09-23T03:28:31.352Z,1010.72
2022-09-23T03:29:31.306Z,1010.73
2022-09-23T03:30:31.339Z,1010.68
2022-09-23T03:31:31.344Z,1010.68
2022-09-23T03:32:31.286Z,1010.72
2022-09-23T03:33:31.258Z,1010.69
2022-09-23T03:34:31.256Z,1010.70
2022-09-23T03:35:31.268Z,1010.68
2022-09-23T03:36:31.269Z,1010.68
2022-09-23T03:37:31.232Z,1010.63
2022-09-23T03:38:31.240Z,1010.65
2022-09-23T03:39:31.231Z,1010.59
2022-09-23T03:40:31.235Z,1010.61
2022-09-23T03:41:31.189Z,1010.62
2022-09-23T03:42:31.608Z,1010.67
2022-09-23T03:43:31.159Z,1010.65
2022-09-23T03:44:31.149Z,1010.61
2022-09-23T03:45:32.361Z,1010.63
2022-09-23T03:46:31.129Z,1010.58
2022-09-23T03:47:31.149Z,1010.56
2022-09-23T03:48:31.097Z,1010.58
2022-09-23T03:49:31.105Z,1010.56
2022-09-23T03:50:31.148Z,1010.54
2022-09-23T03:51:31.406Z,1010.55
2022-09-23T03:52:31.067Z,1010.58
2022-09-23T03:53:31.159Z,1010.52
2022-09-23T03:54:31.036Z,1010.53
2022-09-23T03:55:31.049Z,1010.58
2022-09-23T03:56:31.017Z,1010.51
2022-09-23T03:57:31.031Z,1010.54
2022-09-23T03:58:31.027Z,1010.52
2022-09-23T03:59:31.028Z,1010.52
2022-09-23T04:00:31.197Z,1010.52
2022-09-23T04:01:30.996Z,1010.50
2022-09-23T04:02:31.077Z,1010.50
2022-09-23T04:03:30.992Z,1010.46
2022-09-23T04:04:30.971Z,1010.48
2022-09-23T04:05:30.943Z,1010.44
2022-09-23T04:06:30.898Z,1010.44
2022-09-23T04:07:30.945Z,1010.41
2022-09-23T04:08:30.907Z,1010.46
2022-09-23T04:09:30.883Z,1010.44
2022-09-23T04:10:30.855Z,1010.45
2022-09-23T04:11:30.866Z,1010.47
2022-09-23T04:12:30.874Z,1010.47
2022-09-23T04:13:30.865Z,1010.49
2022-09-23T04:14:30.816Z,1010.48
2022-09-23T04:15:30.846Z,1010.41
2022-09-23T04:16:30.976Z,1010.40
2022-09-23T04:17:30.798Z,1010.42
2022-09-23T04:18:30.805Z,1010.44
2022-09-23T04:19:30.793Z,1010.43
2022-09-23T04:20:30.776Z,1010.39
2022-09-23T04:21:30.743Z,1010.40
2022-09-23T04:22:32.538Z,1010.40
2022-09-23T04:23:30.723Z,1010.40
2022-09-23T04:24:30.736Z,1010.39
2022-09-23T04:25:30.709Z,1010.43
2022-09-23T04:26:30.686Z,1010.35
2022-09-23T04:27:35.451Z,1010.38
2022-09-23T04:28:31.686Z,1010.37
2022-09-23T04:29:30.655Z,1010.31
2022-09-23T04:30:30.675Z,1010.30
2022-09-23T04:31:30.714Z,1010.29
2022-09-23T04:32:30.616Z,1010.27
2022-09-23T04:33:30.606Z,1010.27
2022-09-23T04:34:30.595Z,1010.27
2022-09-23T04:35:30.726Z,1010.27
2022-09-23T04:36:30.579Z,1010.23
2022-09-23T04:37:30.566Z,1010.25
2022-09-23T04:38:30.565Z,1010.22
2022-09-23T04:39:30.545Z,1010.22
2022-09-23T04:40:30.575Z,1010.21
2022-09-23T04:41:33.758Z,1010.16
2022-09-23T04:42:30.516Z,1010.21
2022-09-23T04:43:30.511Z,1010.22
2022-09-23T04:44:30.491Z,1010.17
2022-09-23T04:45:30.491Z,1010.20
2022-09-23T04:46:30.540Z,1010.18
2022-09-23T04:47:30.465Z,1010.20
2022-09-23T04:48:30.446Z,1010.13
2022-09-23T04:49:30.435Z,1010.12
2022-09-23T04:50:30.424Z,1010.09
2022-09-23T04:51:30.450Z,1010.10
2022-09-23T04:52:30.414Z,1010.08
2022-09-23T04:53:30.396Z,1010.02
2022-09-23T04:54:30.393Z,1010.05
2022-09-23T04:55:30.374Z,1010.05
2022-09-23T04:56:33.612Z,1010.03
2022-09-23T04:57:30.375Z,1010.04
2022-09-23T04:58:30.337Z,1010.06
2022-09-23T04:59:30.338Z,1010.08
2022-09-23T05:00:30.375Z,1010.02
2022-09-23T05:01:30.435Z,1010.06
2022-09-23T05:02:30.368Z,1010.07
2022-09-23T05:03:30.293Z,1010.02
2022-09-23T05:04:30.275Z,1010.06
2022-09-23T05:05:30.267Z,1010.00
2022-09-23T05:06:37.325Z,1010.04
2022-09-23T05:07:30.247Z,1009.97
2022-09-23T05:08:30.223Z,1010.00
2022-09-23T05:09:30.213Z,1010.02
2022-09-23T05:10:30.224Z,1010.01
2022-09-23T05:11:30.265Z,1010.04
2022-09-23T05:12:30.182Z,1009.99
2022-09-23T05:13:30.184Z,1010.03
2022-09-23T05:14:30.263Z,1010.00
2022-09-23T05:15:30.201Z,1010.05
2022-09-23T05:16:30.242Z,1010.04
2022-09-23T05:17:30.141Z,1010.08
2022-09-23T05:18:30.122Z,1010.05
2022-09-23T05:19:30.112Z,1010.07
2022-09-23T05:20:30.114Z,1010.08
2022-09-23T05:21:30.088Z,1010.10
2022-09-23T05:22:30.073Z,1010.09
2022-09-23T05:23:30.083Z,1010.10
2022-09-23T05:24:30.073Z,1010.09
2022-09-23T05:25:30.042Z,1010.09
2022-09-23T05:26:30.031Z,1010.10
2022-09-23T05:27:30.018Z,1010.11
2022-09-23T05:28:30.004Z,1010.11
2022-09-23T05:29:33.403Z,1010.12
2022-09-23T05:30:29.982Z,1010.10
2022-09-23T05:31:30.107Z,1010.14
2022-09-23T05:32:29.972Z,1010.18
2022-09-23T05:33:29.962Z,1010.18
2022-09-23T05:34:29.950Z,1010.20
2022-09-23T05:35:29.961Z,1010.15
2022-09-23T05:36:33.233Z,1010.16
2022-09-23T05:37:30.921Z,1010.20
2022-09-23T05:38:29.902Z,1010.21
2022-09-23T05:39:29.942Z,1010.15
2022-09-23T05:40:29.998Z,1010.17
2022-09-23T05:41:29.873Z,1010.16
2022-09-23T05:42:29.851Z,1010.17
2022-09-23T05:43:29.941Z,1010.18
2022-09-23T05:44:29.851Z,1010.15
2022-09-23T05:45:29.871Z,1010.16
2022-09-23T05:46:29.897Z,1010.14
2022-09-23T05:47:29.823Z,1010.15
2022-09-23T05:48:29.790Z,1010.17
2022-09-23T05:49:55.267Z,1010.15
2022-09-23T05:50:30.802Z,1010.18
2022-09-23T05:51:31.093Z,1010.14
2022-09-23T05:52:29.755Z,1010.12
2022-09-23T05:53:29.777Z,1010.15
2022-09-23T05:54:29.801Z,1010.15
2022-09-23T05:55:29.731Z,1010.18
2022-09-23T05:56:29.700Z,1010.17
2022-09-23T05:57:29.699Z,1010.20
2022-09-23T05:58:29.690Z,1010.18
2022-09-23T05:59:29.670Z,1010.15
2022-09-23T06:00:33.800Z,1010.14
2022-09-23T06:01:29.665Z,1010.12
2022-09-23T06:02:29.675Z,1010.12
2022-09-23T06:03:29.639Z,1010.12
2022-09-23T06:04:29.655Z,1010.15
2022-09-23T06:05:29.649Z,1010.08
2022-09-23T06:06:29.598Z,1010.11
2022-09-23T06:07:29.589Z,1010.10
2022-09-23T06:08:29.570Z,1010.07
2022-09-23T06:09:34.111Z,1010.11
2022-09-23T06:10:30.589Z,1010.14
2022-09-23T06:11:29.549Z,1010.12
2022-09-23T06:12:29.538Z,1010.11
2022-09-23T06:13:29.526Z,1010.15
2022-09-23T06:14:29.519Z,1010.20
2022-09-23T06:15:29.497Z,1010.14
2022-09-23T06:16:29.546Z,1010.16
2022-09-23T06:17:29.488Z,1010.19
2022-09-23T06:18:29.470Z,1010.14
2022-09-23T06:19:29.458Z,1010.15
2022-09-23T06:20:29.482Z,1010.19
2022-09-23T06:21:29.429Z,1010.13
2022-09-23T06:22:29.578Z,1010.18
2022-09-23T06:23:29.408Z,1010.17
2022-09-23T06:24:31.658Z,1010.14
2022-09-23T06:25:29.397Z,1010.15
2022-09-23T06:26:29.389Z,1010.13
2022-09-23T06:27:29.369Z,1010.15
2022-09-23T06:29:38.881Z,1010.16
2022-09-23T06:30:38.844Z,1010.13
2022-09-23T06:31:42.252Z,1010.14
2022-09-23T06:32:38.824Z,1010.07
2022-09-23T06:33:38.863Z,1010.10
2022-09-23T06:34:49.203Z,1010.10
2022-09-23T06:35:40.054Z,1010.10
2022-09-23T06:36:44.050Z,1010.09
2022-09-23T06:37:39.808Z,1010.09
2022-09-23T06:38:38.764Z,1010.10
2022-09-23T06:39:41.183Z,1010.08
2022-09-23T06:40:38.822Z,1010.08
2022-09-23T06:41:38.723Z,1010.09
2022-09-23T06:42:38.753Z,1010.11
2022-09-23T06:43:38.710Z,1010.11
2022-09-23T06:44:38.894Z,1010.13
2022-09-23T06:45:38.692Z,1010.13
2022-09-23T06:46:38.714Z,1010.15
2022-09-23T06:47:38.662Z,1010.13
2022-09-23T06:48:41.722Z,1010.14
2022-09-23T06:49:39.973Z,1010.13
2022-09-23T06:50:38.642Z,1010.11
2022-09-23T06:51:38.636Z,1010.11
2022-09-23T06:52:38.635Z,1010.13
2022-09-23T06:53:38.593Z,1010.11
2022-09-23T06:54:38.622Z,1010.14
2022-09-23T06:55:38.626Z,1010.15
2022-09-23T06:56:39.719Z,1010.15
2022-09-23T06:57:38.553Z,1010.16
2022-09-23T06:58:38.547Z,1010.15
2022-09-23T06:59:38.533Z,1010.17
2022-09-23T07:00:38.530Z,1010.17
2022-09-23T07:01:38.707Z,1010.13
2022-09-23T07:02:38.644Z,1010.15
2022-09-23T07:03:38.494Z,1010.11
2022-09-23T07:04:38.533Z,1010.14
2022-09-23T07:05:38.470Z,1010.10
2022-09-23T07:06:38.491Z,1010.14
2022-09-23T07:07:38.451Z,1010.13
2022-09-23T07:08:38.447Z,1010.11
2022-09-23T07:09:38.431Z,1010.16
2022-09-23T07:10:38.455Z,1010.14
2022-09-23T07:11:41.712Z,1010.09
2022-09-23T07:12:38.401Z,1010.14
2022-09-23T07:13:38.396Z,1010.13
2022-09-23T07:14:38.382Z,1010.18
2022-09-23T07:15:38.402Z,1010.17
2022-09-23T07:16:38.395Z,1010.20
2022-09-23T07:17:38.354Z,1010.24
2022-09-23T07:18:38.390Z,1010.20
2022-09-23T07:19:38.338Z,1010.14
2022-09-23T07:20:38.323Z,1010.19
2022-09-23T07:21:38.301Z,1010.19
2022-09-23T07:22:38.302Z,1010.16
2022-09-23T07:23:38.281Z,1010.19
2022-09-23T07:24:40.011Z,1010.17
2022-09-23T07:25:38.262Z,1010.18
2022-09-23T07:26:42.219Z,1010.21
2022-09-23T07:27:39.240Z,1010.19
2022-09-23T07:28:38.233Z,1010.18
2022-09-23T07:29:46.616Z,1010.20
2022-09-23T07:30:40.794Z,1010.22
2022-09-23T07:31:39.881Z,1010.25
2022-09-23T07:32:47.370Z,1010.13
2022-09-23T07:33:39.215Z,1010.12
2022-09-23T07:34:38.160Z,1010.13
2022-09-23T07:35:38.155Z,1010.18
2022-09-23T07:36:38.169Z,1010.14
2022-09-23T07:37:38.130Z,1010.14
2022-09-23T07:38:42.806Z,1010.15
2022-09-23T07:39:39.114Z,1010.12
2022-09-23T07:40:38.236Z,1010.17
2022-09-23T07:41:38.097Z,1010.18
2022-09-23T07:42:38.070Z,1010.20
2022-09-23T07:43:38.069Z,1010.23
2022-09-23T07:44:38.077Z,1010.18
2022-09-23T07:45:38.101Z,1010.17
2022-09-23T07:46:38.108Z,1010.17
2022-09-23T07:47:38.021Z,1010.19
2022-09-23T07:48:38.010Z,1010.22
2022-09-23T07:49:38.013Z,1010.18
2022-09-23T07:50:38.000Z,1010.16
2022-09-23T07:51:38.025Z,1010.23
2022-09-23T07:52:37.960Z,1010.22
2022-09-23T07:53:37.962Z,1010.21
2022-09-23T07:54:37.942Z,1010.23
2022-09-23T07:55:37.970Z,1010.24
2022-09-23T07:56:37.950Z,1010.17
2022-09-23T07:57:37.981Z,1010.22
2022-09-23T07:58:37.907Z,1010.24
2022-09-23T07:59:37.935Z,1010.26
2022-09-23T08:00:37.878Z,1010.23
2022-09-23T08:01:38.000Z,1010.23
2022-09-23T08:02:37.928Z,1010.25
2022-09-23T08:03:37.850Z,1010.29
2022-09-23T08:04:37.890Z,1010.27
2022-09-23T08:05:37.838Z,1010.27
2022-09-23T08:06:37.824Z,1010.26
2022-09-23T08:07:38.180Z,1010.23
2022-09-23T08:08:37.790Z,1010.28
2022-09-23T08:09:37.800Z,1010.27
2022-09-23T08:10:37.773Z,1010.28
2022-09-23T08:11:37.769Z,1010.27
2022-09-23T08:12:37.757Z,1010.30
2022-09-23T08:13:37.830Z,1010.32
2022-09-23T08:14:37.771Z,1010.29
2022-09-23T08:15:37.774Z,1010.26
2022-09-23T08:16:37.703Z,1010.25
2022-09-23T08:17:37.710Z,1010.25
2022-09-23T08:18:37.680Z,1010.27
2022-09-23T08:19:37.741Z,1010.26
2022-09-23T08:20:37.660Z,1010.27
2022-09-23T08:21:37.676Z,1010.31
2022-09-23T08:22:37.640Z,1010.34
2022-09-23T08:23:37.632Z,1010.33
2022-09-23T08:24:41.349Z,1010.35
2022-09-23T08:25:37.621Z,1010.30
2022-09-23T08:26:37.601Z,1010.30
2022-09-23T08:27:37.605Z,1010.29
2022-09-23T08:28:37.584Z,1010.25
2022-09-23T08:29:37.597Z,1010.24
2022-09-23T08:30:43.023Z,1010.20
2022-09-23T08:31:42.914Z,1010.20
2022-09-23T08:32:37.567Z,1010.22
2022-09-23T08:33:37.519Z,1010.24
2022-09-23T08:34:37.529Z,1010.23
2022-09-23T08:35:37.566Z,1010.18
2022-09-23T08:36:37.616Z,1010.19
2022-09-23T08:37:37.509Z,1010.18
2022-09-23T08:38:37.496Z,1010.18
2022-09-23T08:39:37.464Z,1010.18
2022-09-23T08:40:37.632Z,1010.12
2022-09-23T08:41:37.461Z,1010.10
2022-09-23T08:42:37.454Z,1010.10
2022-09-23T08:43:37.419Z,1010.08
2022-09-23T08:44:37.408Z,1010.08
2022-09-23T08:45:37.528Z,1010.12
2022-09-23T08:46:37.410Z,1010.10
2022-09-23T08:47:37.391Z,1010.14
2022-09-23T08:48:37.371Z,1010.14
2022-09-23T08:49:37.428Z,1010.16
2022-09-23T08:50:37.480Z,1010.16
2022-09-23T08:51:37.449Z,1010.17
2022-09-23T08:52:37.319Z,1010.17
2022-09-23T08:53:37.346Z,1010.21
2022-09-23T08:54:37.319Z,1010.18
2022-09-23T08:55:37.350Z,1010.18
2022-09-23T08:56:37.278Z,1010.15
2022-09-23T08:57:37.321Z,1010.19
2022-09-23T08:58:37.263Z,1010.13
2022-09-23T08:59:37.249Z,1010.18
2022-09-23T09:00:37.278Z,1010.15
2022-09-23T09:01:37.246Z,1010.14
2022-09-23T09:02:37.333Z,1010.15
2022-09-23T09:03:37.242Z,1010.17
2022-09-23T09:04:37.199Z,1010.14
2022-09-23T09:05:39.699Z,1010.11
2022-09-23T09:06:51.892Z,1010.11
2022-09-23T09:07:38.501Z,1010.06
2022-09-23T09:08:37.150Z,1010.09
2022-09-23T09:09:37.348Z,1010.11
2022-09-23T09:10:37.147Z,1010.13
2022-09-23T09:11:37.128Z,1010.07
2022-09-23T09:12:37.131Z,1010.09
2022-09-23T09:13:37.189Z,1010.06
2022-09-23T09:14:37.100Z,1010.07
2022-09-23T09:15:37.533Z,1010.05
2022-09-23T09:16:58.548Z,1010.06
2022-09-23T09:17:38.264Z,1010.02
2022-09-23T09:18:37.041Z,1010.06
2022-09-23T09:19:37.040Z,1010.03
2022-09-23T09:20:37.022Z,1010.05
2022-09-23T09:21:37.022Z,1010.02
2022-09-23T09:23:37.099Z,1010.01
2022-09-23T09:24:37.023Z,1009.99
2022-09-23T09:25:36.970Z,1010.02
2022-09-23T09:26:36.966Z,1009.99
2022-09-23T09:27:36.949Z,1009.97
2022-09-23T09:28:36.938Z,1009.99
2022-09-23T09:29:50.132Z,1009.99
2022-09-23T09:30:36.962Z,1010.01
2022-09-23T09:31:37.022Z,1010.01
2022-09-23T09:32:42.330Z,1009.99
2022-09-23T09:33:36.968Z,1010.03
2022-09-23T09:34:36.879Z,1010.02
2022-09-23T09:35:36.965Z,1010.07
2022-09-23T09:36:36.840Z,1010.04
2022-09-23T09:37:36.839Z,1010.01
2022-09-23T09:38:36.826Z,1010.03
2022-09-23T09:39:36.860Z,1009.97
2022-09-23T09:40:37.003Z,1009.97
2022-09-23T09:41:36.809Z,1009.97
2022-09-23T09:42:36.785Z,1009.96
2022-09-23T09:43:38.846Z,1009.94
2022-09-23T09:44:37.135Z,1009.96
2022-09-23T09:45:36.838Z,1009.89
2022-09-23T09:46:36.853Z,1009.92
2022-09-23T09:47:36.729Z,1009.92
2022-09-23T09:48:36.761Z,1009.84
2022-09-23T09:49:40.281Z,1009.88
2022-09-23T09:50:36.689Z,1009.88
2022-09-23T09:51:36.757Z,1009.83
2022-09-23T09:52:37.357Z,1009.87
2022-09-23T09:53:36.619Z,1009.84
2022-09-23T09:54:36.756Z,1009.89
2022-09-23T09:55:36.595Z,1009.85
2022-09-23T09:56:36.658Z,1009.89
2022-09-23T09:57:36.586Z,1009.87
2022-09-23T09:58:36.567Z,1009.82
2022-09-23T09:59:36.550Z,1009.82
2022-09-23T10:00:41.202Z,1009.87
2022-09-23T10:01:36.540Z,1009.79
2022-09-23T10:02:36.510Z,1009.76
2022-09-23T10:03:36.502Z,1009.78
2022-09-23T10:04:36.591Z,1009.80
2022-09-23T10:05:36.515Z,1009.80
2022-09-23T10:06:36.640Z,1009.80
2022-09-23T10:07:36.461Z,1009.80
2022-09-23T10:08:36.440Z,1009.82
2022-09-23T10:09:36.441Z,1009.85
2022-09-23T10:10:36.453Z,1009.79
2022-09-23T10:11:36.416Z,1009.78
2022-09-23T10:12:36.449Z,1009.80
2022-09-23T10:13:36.389Z,1009.79
2022-09-23T10:14:36.379Z,1009.78
2022-09-23T10:15:36.398Z,1009.80
2022-09-23T10:16:36.472Z,1009.80
2022-09-23T10:17:36.354Z,1009.77
2022-09-23T10:18:36.340Z,1009.75
2022-09-23T10:19:36.327Z,1009.77
2022-09-23T10:20:36.327Z,1009.76
2022-09-23T10:21:36.328Z,1009.78
2022-09-23T10:22:36.333Z,1009.74
2022-09-23T10:23:36.288Z,1009.73
2022-09-23T10:24:36.279Z,1009.74
2022-09-23T10:25:36.269Z,1009.75
2022-09-23T10:26:36.248Z,1009.75
2022-09-23T10:27:36.239Z,1009.76
2022-09-23T10:28:36.309Z,1009.76
2022-09-23T10:29:36.226Z,1009.74
2022-09-23T10:30:36.269Z,1009.74
2022-09-23T10:31:36.208Z,1009.74
2022-09-23T10:32:36.179Z,1009.75
2022-09-23T10:33:36.180Z,1009.71
2022-09-23T10:34:36.228Z,1009.71
2022-09-23T10:35:36.170Z,1009.76
2022-09-23T10:36:36.152Z,1009.73
2022-09-23T10:37:36.143Z,1009.71
2022-09-23T10:38:36.133Z,1009.70
2022-09-23T10:39:36.123Z,1009.74
2022-09-23T10:40:36.197Z,1009.66
2022-09-23T10:41:36.093Z,1009.68
2022-09-23T10:42:36.134Z,1009.69
2022-09-23T10:43:36.085Z,1009.67
2022-09-23T10:44:36.071Z,1009.69
2022-09-23T10:45:38.588Z,1009.70
2022-09-23T10:46:37.086Z,1009.71
2022-09-23T10:47:36.036Z,1009.65
2022-09-23T10:48:36.048Z,1009.68
2022-09-23T10:49:37.519Z,1009.65
2022-09-23T10:50:36.008Z,1009.65
2022-09-23T10:51:35.998Z,1009.59
2022-09-23T10:52:35.989Z,1009.61
2022-09-23T10:53:35.983Z,1009.61
2022-09-23T10:54:36.001Z,1009.55
2022-09-23T10:55:35.960Z,1009.55
2022-09-23T10:56:35.940Z,1009.54
2022-09-23T10:57:35.944Z,1009.55
2022-09-23T10:58:35.923Z,1009.55
2022-09-23T10:59:35.920Z,1009.56
2022-09-23T11:00:35.927Z,1009.50
2022-09-23T11:01:35.969Z,1009.52
2022-09-23T11:02:35.877Z,1009.47
2022-09-23T11:03:35.874Z,1009.47
2022-09-23T11:04:35.916Z,1009.45
2022-09-23T11:05:35.877Z,1009.50
2022-09-23T11:06:35.857Z,1009.46
2022-09-23T11:07:42.873Z,1009.43
2022-09-23T11:08:35.813Z,1009.41
2022-09-23T11:09:35.812Z,1009.39
2022-09-23T11:10:46.286Z,1009.44
2022-09-23T11:11:36.784Z,1009.39
2022-09-23T11:12:35.781Z,1009.39
2022-09-23T11:13:35.765Z,1009.45
2022-09-23T11:14:35.786Z,1009.40
2022-09-23T11:15:35.772Z,1009.35
2022-09-23T11:16:35.767Z,1009.34
2022-09-23T11:17:35.725Z,1009.30
2022-09-23T11:18:35.715Z,1009.33
2022-09-23T11:19:35.719Z,1009.27
2022-09-23T11:20:35.714Z,1009.30
2022-09-23T11:21:35.729Z,1009.28
2022-09-23T11:22:35.678Z,1009.25
2022-09-23T11:23:35.666Z,1009.21
2022-09-23T11:24:35.660Z,1009.22
2022-09-23T11:25:35.639Z,1009.20
2022-09-23T11:26:35.775Z,1009.21
2022-09-23T11:27:35.647Z,1009.18
2022-09-23T11:28:35.599Z,1009.25
2022-09-23T11:29:35.600Z,1009.26
2022-09-23T11:30:35.608Z,1009.21
2022-09-23T11:31:35.577Z,1009.18
2022-09-23T11:32:35.590Z,1009.19
2022-09-23T11:33:35.549Z,1009.20
2022-09-23T11:34:35.590Z,1009.21
2022-09-23T11:35:35.531Z,1009.17
2022-09-23T11:36:35.520Z,1009.16
2022-09-23T11:37:35.511Z,1009.17
2022-09-23T11:38:35.505Z,1009.11
2022-09-23T11:39:35.494Z,1009.10
2022-09-23T11:40:35.575Z,1009.06
2022-09-23T11:41:35.475Z,1009.07
2022-09-23T11:42:35.453Z,1009.06
2022-09-23T11:43:35.453Z,1009.09
2022-09-23T11:44:35.475Z,1009.09
2022-09-23T11:45:35.515Z,1009.07
2022-09-23T11:46:35.424Z,1009.06
2022-09-23T11:47:39.579Z,1009.07
2022-09-23T11:48:35.397Z,1009.05
2022-09-23T11:49:35.444Z,1009.13
2022-09-23T11:50:35.374Z,1009.08
2022-09-23T11:51:35.363Z,1009.08
2022-09-23T11:52:35.363Z,1009.07
2022-09-23T11:53:35.353Z,1009.14
2022-09-23T11:54:35.334Z,1009.09
2022-09-23T11:55:35.647Z,1009.11
2022-09-23T11:56:36.919Z,1009.14
2022-09-23T11:57:45.658Z,1009.05
2022-09-23T11:58:36.322Z,1009.09
2022-09-23T11:59:40.130Z,1009.09
2022-09-23T12:00:36.297Z,1009.11
2022-09-23T12:01:37.999Z,1009.04
2022-09-23T12:02:35.302Z,1009.04
2022-09-23T12:03:43.462Z,1009.03
2022-09-23T12:04:37.632Z,1009.02
2022-09-23T12:05:35.348Z,1009.05
2022-09-23T12:06:35.208Z,1009.03
2022-09-23T12:07:35.198Z,1009.07